Time;durP1;ratioP1;P1;durP2;ratioP2;P2;SDS_P1;SDS_P2;PMS_P1;PMS_P2;Temp;Humidity;BMP_temperature;BMP_pressure;BME280_temperature;BME280_humidity;BME280_pressure;Samples;Min_cycle;Max_cycle;Signal;HPM_P1;HPM_P2
2023/01/03 00:01:14;;;;;;;19.05;8.70;;;;;;;10.58;83.89;102136.06;4996448;28;20046;-68
2023/01/03 00:03:41;;;;;;;25.52;14.93;;;;;;;10.71;85.86;102127.22;4996067;28;20054;-68
2023/01/03 00:06:16;;;;;;;24.88;13.95;;;;;;;10.61;83.63;102130.00;5011402;28;20046;-68
2023/01/03 00:08:44;;;;;;;21.35;11.48;;;;;;;10.80;85.06;102131.88;4995401;28;20081;-67
2023/01/03 00:11:17;;;;;;;22.23;11.38;;;;;;;10.63;85.74;102128.63;4979000;28;20042;-69
2023/01/03 00:13:45;;;;;;;17.05;9.15;;;;;;;10.31;83.50;102135.56;4996539;28;20055;-68
2023/01/03 00:16:19;;;;;;;17.33;8.95;;;;;;;10.19;83.62;102144.94;4978892;28;20038;-69
2023/01/03 00:18:46;;;;;;;16.88;8.13;;;;;;;10.36;83.70;102133.63;4979237;28;20048;-68
2023/01/03 00:21:13;;;;;;;12.80;8.15;;;;;;;10.61;85.29;102128.09;4994746;28;20074;-68
2023/01/03 00:23:42;;;;;;;12.55;7.68;;;;;;;10.52;84.65;102142.69;5011451;28;20057;-68
2023/01/03 00:26:11;;;;;;;15.30;7.78;;;;;;;10.46;84.26;102138.31;4995583;28;20502;-68
2023/01/03 00:28:38;;;;;;;18.23;6.83;;;;;;;10.27;82.62;102132.53;4979406;28;20126;-68
2023/01/03 00:31:07;;;;;;;15.90;7.78;;;;;;;10.20;83.40;102130.06;5010638;28;20042;-68
2023/01/03 00:33:37;;;;;;;15.68;7.00;;;;;;;10.42;84.58;102135.28;4993882;28;20058;-71
2023/01/03 00:36:07;;;;;;;16.53;6.63;;;;;;;10.32;85.66;102132.53;4983863;28;20050;-68
2023/01/03 00:38:35;;;;;;;11.98;6.97;;;;;;;10.29;84.43;102126.78;4978384;28;20050;-68
2023/01/03 00:41:09;;;;;;;12.82;6.75;;;;;;;10.12;84.35;102127.88;4986292;28;20047;-69
2023/01/03 00:43:38;;;;;;;12.70;6.40;;;;;;;10.30;86.55;102132.00;4992240;28;20422;-68
2023/01/03 00:46:06;;;;;;;14.85;6.32;;;;;;;10.14;84.21;102127.59;4982416;28;20050;-68
2023/01/03 00:48:33;;;;;;;17.52;6.72;;;;;;;10.35;85.41;102125.66;4996524;28;20054;-69
2023/01/03 00:51:15;;;;;;;13.25;6.72;;;;;;;10.03;83.97;102128.66;4994903;28;20051;-68
2023/01/03 00:53:44;;;;;;;14.05;6.78;;;;;;;10.48;87.10;102120.38;4996624;28;20054;-68
2023/01/03 00:56:13;;;;;;;16.52;7.32;;;;;;;10.15;83.88;102120.97;4995775;28;20053;-68
2023/01/03 00:58:43;;;;;;;16.02;7.32;;;;;;;10.27;85.18;102121.50;4994957;28;20088;-68
2023/01/03 01:01:16;;;;;;;11.90;7.35;;;;;;;10.08;83.71;102126.78;4997317;28;20043;-68
2023/01/03 01:03:50;;;;;;;15.63;7.45;;;;;;;10.37;85.49;102126.19;4998094;28;20065;-69
2023/01/03 01:06:24;;;;;;;13.73;6.25;;;;;;;10.15;84.57;102120.97;4995783;28;20053;-69
2023/01/03 01:08:53;;;;;;;11.43;5.78;;;;;;;9.70;85.05;102118.19;4998740;28;20058;-68
2023/01/03 01:11:21;;;;;;;10.63;6.10;;;;;;;10.18;87.55;102115.75;5014513;28;20050;-71
2023/01/03 01:13:49;;;;;;;14.43;5.10;;;;;;;10.28;87.17;102114.09;4999332;28;20058;-68
2023/01/03 01:16:19;;;;;;;13.27;4.97;;;;;;;10.45;85.58;102122.88;4998208;28;20058;-68
2023/01/03 01:18:49;;;;;;;11.23;4.20;;;;;;;10.43;86.62;102119.56;5014197;28;20065;-69
2023/01/03 01:21:22;;;;;;;11.55;3.95;;;;;;;10.49;85.42;102119.28;4998190;28;20056;-68
2023/01/03 01:23:49;;;;;;;10.25;4.70;;;;;;;10.46;83.89;102116.28;4999433;28;20054;-68
2023/01/03 01:26:18;;;;;;;12.30;4.90;;;;;;;10.60;84.20;102120.91;4996425;28;20498;-67
2023/01/03 01:28:46;;;;;;;10.73;3.50;;;;;;;10.32;85.14;102123.47;4998541;28;20625;-68
2023/01/03 01:31:17;;;;;;;8.70;3.28;;;;;;;10.64;85.76;102123.94;5013178;28;20042;-68
2023/01/03 01:33:45;;;;;;;9.85;3.28;;;;;;;10.47;84.65;102129.75;4979897;28;20055;-68
2023/01/03 01:36:18;;;;;;;11.10;3.50;;;;;;;10.48;84.50;102136.09;4985388;28;20042;-68
2023/01/03 01:38:47;;;;;;;10.60;3.60;;;;;;;10.38;83.22;102141.59;4998264;28;20065;-68
2023/01/03 01:44:36;;;;;;;11.77;4.22;;;;;;;10.43;84.87;102131.41;4996748;28;20054;-67
2023/01/03 01:44:40;;;;;;;8.25;3.40;;;;;;;10.61;85.44;102136.34;5013134;28;20050;-69
2023/01/03 01:47:16;;;;;;;10.40;4.10;;;;;;;10.46;85.20;102138.31;4980583;28;20125;-69
2023/01/03 01:49:46;;;;;;;9.70;3.83;;;;;;;10.49;84.75;102135.81;4987673;28;20451;-68
2023/01/03 01:52:15;;;;;;;10.88;3.72;;;;;;;10.59;85.81;102134.97;4994133;28;20054;-71
2023/01/03 01:54:44;;;;;;;7.65;3.33;;;;;;;10.45;83.77;102134.72;4981571;28;20073;-70
2023/01/03 01:57:15;;;;;;;11.52;4.05;;;;;;;10.65;86.81;102136.63;4998398;28;20054;-68
2023/01/03 01:59:43;;;;;;;8.18;3.28;;;;;;;10.65;85.06;102133.88;4999307;28;20437;-69
2023/01/03 02:02:13;;;;;;;8.85;3.28;;;;;;;10.82;84.32;102151.72;4997276;28;20050;-69
2023/01/03 02:04:41;;;;;;;6.72;2.97;;;;;;;11.19;84.09;102146.59;4979795;28;20083;-69
2023/01/03 02:07:08;;;;;;;12.43;3.70;;;;;;;11.21;84.06;102147.16;4997579;28;20046;-69
2023/01/03 02:09:37;;;;;;;10.82;2.92;;;;;;;11.26;81.67;102136.09;4996202;28;20062;-69
2023/01/03 02:15:20;;;;;;;8.52;3.28;;;;;;;10.85;81.30;102148.41;4996228;28;20061;-69
2023/01/03 02:18:15;;;;;;;13.13;3.10;;;;;;;10.96;84.37;102154.72;4997688;28;20053;-68
2023/01/03 02:20:58;;;;;;;9.00;2.80;;;;;;;11.03;84.61;102147.81;4996801;28;20253;-70
2023/01/03 02:23:47;;;;;;;11.52;3.30;;;;;;;11.21;83.78;102152.66;4995953;28;20062;-69
2023/01/03 02:26:26;;;;;;;10.38;3.08;;;;;;;11.29;84.51;102160.38;4954181;28;1263766;-69
2023/01/03 02:29:05;;;;;;;7.88;3.40;;;;;;;10.89;82.21;102156.94;4997377;28;20054;-71
2023/01/03 02:31:59;;;;;;;10.27;3.78;;;;;;;10.94;83.93;102163.25;4986634;28;20059;-69
2023/01/03 02:34:46;;;;;;;11.57;3.05;;;;;;;11.36;84.30;102157.28;4959178;28;20039;-69
2023/01/03 02:37:54;;;;;;;10.18;2.70;;;;;;;11.44;84.42;102166.94;4981112;28;20495;-70
2023/01/03 02:40:30;;;;;;;13.60;2.80;;;;;;;11.58;83.26;102160.47;4985348;28;20110;-70
2023/01/03 02:43:05;;;;;;;11.40;3.80;;;;;;;11.41;83.54;102170.22;5013362;28;20050;-70
2023/01/03 02:45:50;;;;;;;10.40;3.80;;;;;;;11.00;83.25;102162.13;5012453;28;20069;-70
2023/01/03 02:48:43;;;;;;;11.93;3.22;;;;;;;11.38;84.49;102157.84;4996125;28;20054;-73
2023/01/03 02:51:22;;;;;;;11.05;3.10;;;;;;;11.45;82.39;102152.00;4986435;28;20059;-70
2023/01/03 02:53:50;;;;;;;9.70;3.03;;;;;;;11.71;83.16;102154.38;4997900;28;20501;-70
2023/01/03 02:56:27;;;;;;;9.82;3.03;;;;;;;11.70;83.57;102149.13;4980396;28;20065;-69
2023/01/03 02:59:01;;;;;;;9.57;2.50;;;;;;;11.70;81.62;102149.94;4996725;28;20051;-70
2023/01/03 03:01:29;;;;;;;7.95;2.95;;;;;;;11.15;81.03;102156.56;4997160;28;20057;-70
2023/01/03 03:03:57;;;;;;;14.73;3.05;;;;;;;11.40;82.57;102161.16;4997342;28;20057;-70
2023/01/03 03:06:31;;;;;;;9.98;3.25;;;;;;;11.76;83.92;102159.84;4995502;28;20067;-70
2023/01/03 03:08:59;;;;;;;12.73;2.92;;;;;;;11.34;80.15;102160.34;4996793;28;20070;-69
2023/01/03 03:14:16;;;;;;;16.33;2.83;;;;;;;11.42;83.36;102147.06;4997662;28;20383;-69
2023/01/03 03:16:48;;;;;;;10.65;2.90;;;;;;;11.45;82.37;102152.84;4995503;28;20050;-69
2023/01/03 03:25:53;;;;;;;9.05;2.28;;;;;;;11.61;81.69;102145.28;4915712;29;20086;-68
2023/01/03 03:28:35;;;;;;;11.40;3.15;;;;;;;11.43;81.28;102148.69;4921376;29;20407;-69
2023/01/03 03:31:06;;;;;;;10.05;2.95;;;;;;;11.32;81.89;102164.47;4937486;28;20076;-68
2023/01/03 03:34:14;;;;;;;13.57;3.40;;;;;;;10.88;80.91;102169.09;4959859;28;20078;-69
2023/01/03 03:36:59;;;;;;;13.98;3.03;;;;;;;10.98;83.12;102163.53;4952741;28;20058;-68
2023/01/03 03:45:18;;;;;;;11.80;2.63;;;;;;;11.74;82.55;102155.72;4978369;28;20653;-69
2023/01/03 03:47:50;;;;;;;10.80;2.40;;;;;;;11.66;82.99;102156.31;4992763;28;20057;-69
2023/01/03 03:50:29;;;;;;;10.90;2.65;;;;;;;11.46;81.15;102159.16;4979087;28;20055;-69
2023/01/03 03:53:01;;;;;;;12.30;2.67;;;;;;;11.26;81.74;102160.13;4960411;28;20050;-69
2023/01/03 03:55:50;;;;;;;9.68;2.95;;;;;;;11.53;84.51;102159.66;4975403;28;20059;-69
2023/01/03 03:58:22;;;;;;;8.47;2.63;;;;;;;11.90;83.71;102171.06;4960129;28;20058;-70
2023/01/03 04:00:51;;;;;;;12.32;2.63;;;;;;;11.63;82.20;102159.63;4977599;28;20058;-69
2023/01/03 04:03:20;;;;;;;9.02;3.28;;;;;;;11.56;83.69;102164.66;4992042;28;20051;-69
2023/01/03 04:06:01;;;;;;;10.02;2.83;;;;;;;11.64;82.50;102164.91;4974548;28;20059;-69
2023/01/03 04:08:28;;;;;;;11.05;3.70;;;;;;;11.04;80.39;102160.47;4992272;28;20490;-70
2023/01/03 04:11:04;;;;;;;7.47;2.80;;;;;;;11.21;84.73;102160.09;4976579;28;20050;-69
2023/01/03 04:13:33;;;;;;;11.88;3.58;;;;;;;11.33;83.32;102166.94;4961332;28;20399;-69
2023/01/03 04:16:00;;;;;;;12.98;4.47;;;;;;;11.61;84.17;102161.84;4991936;28;20043;-69
2023/01/03 04:18:28;;;;;;;11.85;3.50;;;;;;;11.33;83.06;102164.19;4977565;28;20490;-69
2023/01/03 04:20:55;;;;;;;10.25;3.22;;;;;;;11.86;82.07;102159.78;4977113;28;20050;-69
2023/01/03 04:23:22;;;;;;;13.68;4.10;;;;;;;11.63;83.83;102162.41;4977232;28;20042;-69
2023/01/03 04:25:50;;;;;;;11.93;3.85;;;;;;;11.76;82.45;102170.91;5005088;28;20050;-69
2023/01/03 04:28:17;;;;;;;13.55;4.15;;;;;;;11.85;82.00;102171.94;5011405;28;20054;-69
2023/01/03 04:30:45;;;;;;;10.63;4.00;;;;;;;11.81;79.46;102181.91;4995920;28;20421;-70
2023/01/03 04:33:13;;;;;;;15.02;4.22;;;;;;;11.35;81.33;102195.09;4945861;28;20047;-69
2023/01/03 04:35:40;;;;;;;11.60;4.53;;;;;;;10.98;84.82;102197.41;4962366;28;20058;-69
2023/01/03 04:38:08;;;;;;;16.70;5.13;;;;;;;10.19;82.61;102201.94;4996224;28;20417;-69
2023/01/03 04:40:37;;;;;;;16.88;4.25;;;;;;;10.34;87.25;102196.41;4995417;28;20061;-70
2023/01/03 04:45:50;;;;;;;12.32;3.67;;;;;;;11.09;83.27;102192.69;4995754;28;20073;-69
2023/01/03 04:48:18;;;;;;;12.00;4.13;;;;;;;10.83;82.28;102194.72;4996302;28;20062;-69
2023/01/03 04:50:55;;;;;;;13.93;4.18;;;;;;;10.48;87.27;102202.22;4995443;28;20054;-69
2023/01/03 04:53:24;;;;;;;12.98;4.20;;;;;;;10.69;87.17;102203.81;4996390;28;20050;-70
2023/01/03 04:55:52;;;;;;;14.32;4.45;;;;;;;10.32;83.00;102203.31;4995538;28;20505;-68
2023/01/03 04:58:20;;;;;;;11.35;4.63;;;;;;;10.03;87.16;102208.50;4996291;28;20065;-69
2023/01/03 05:00:47;;;;;;;9.38;4.03;;;;;;;10.85;87.95;102213.72;4994298;28;20047;-69
2023/01/03 05:03:15;;;;;;;14.63;4.43;;;;;;;11.25;84.99;102211.69;5011390;28;20054;-70
2023/01/03 05:05:46;;;;;;;10.15;4.22;;;;;;;11.09;85.58;102220.28;4994144;28;20529;-69
2023/01/03 05:08:13;;;;;;;12.10;4.05;;;;;;;11.26;85.38;102226.31;4996122;28;20050;-70
2023/01/03 05:10:40;;;;;;;14.90;4.50;;;;;;;11.21;82.64;102226.31;4995494;28;20054;-69
2023/01/03 05:13:08;;;;;;;13.05;4.20;;;;;;;11.79;83.41;102214.47;5010973;28;20058;-69
2023/01/03 05:15:36;;;;;;;14.52;4.25;;;;;;;11.80;81.74;102212.56;5010498;28;20050;-69
2023/01/03 05:18:04;;;;;;;10.70;4.07;;;;;;;11.53;79.44;102223.13;5011018;28;20521;-69
2023/01/03 05:26:13;;;;;;;12.68;4.13;;;;;;;11.81;83.67;102226.06;4980848;28;20065;-69
2023/01/03 05:28:42;;;;;;;10.35;4.50;;;;;;;11.24;79.30;102229.31;4978033;28;20055;-69
2023/01/03 05:31:09;;;;;;;12.38;4.63;;;;;;;10.76;84.23;102231.94;4995588;28;20046;-70
2023/01/03 05:33:38;;;;;;;10.15;4.13;;;;;;;11.12;84.38;102233.53;4993548;28;20043;-69
2023/01/03 05:36:05;;;;;;;11.25;4.53;;;;;;;10.95;80.41;102231.06;4983439;28;20054;-70
2023/01/03 05:38:33;;;;;;;11.60;4.90;;;;;;;11.07;82.36;102228.03;4995333;28;20065;-70
2023/01/03 05:41:00;;;;;;;14.05;4.18;;;;;;;11.31;80.56;102224.34;4994100;28;20046;-69
2023/01/03 05:43:27;;;;;;;12.40;4.10;;;;;;;10.73;81.09;102236.09;4994523;28;20058;-70
2023/01/03 05:45:55;;;;;;;9.77;3.85;;;;;;;11.25;82.70;102222.72;5010304;28;20034;-74
2023/01/03 05:48:22;;;;;;;9.20;4.50;;;;;;;11.11;83.30;102218.91;4981084;28;20051;-74
2023/01/03 05:50:51;;;;;;;13.65;3.92;;;;;;;10.34;80.85;102228.66;4986687;28;20537;-74
2023/01/03 05:53:18;;;;;;;12.52;4.38;;;;;;;10.48;86.06;102232.53;4999427;28;20053;-75
2023/01/03 05:55:45;;;;;;;8.60;4.13;;;;;;;10.94;85.39;102240.47;5014151;28;20065;-76
2023/01/03 05:58:13;;;;;;;10.20;4.18;;;;;;;10.85;84.18;102238.53;4982912;28;20046;-75
2023/01/03 06:00:40;;;;;;;11.32;4.30;;;;;;;10.57;84.93;102230.84;5012007;28;20050;-75
2023/01/03 06:03:08;;;;;;;11.93;4.13;;;;;;;10.37;82.23;102226.19;4994242;28;20053;-74
2023/01/03 06:05:35;;;;;;;13.38;4.05;;;;;;;10.60;85.02;102224.81;4982514;28;20058;-74
2023/01/03 06:08:02;;;;;;;14.15;4.40;;;;;;;10.39;83.05;102232.22;4997849;28;20050;-74
2023/01/03 06:10:30;;;;;;;11.82;4.60;;;;;;;10.48;83.99;102243.53;4998427;28;20054;-73
2023/01/03 06:12:58;;;;;;;10.00;4.28;;;;;;;10.37;82.47;102236.38;4998828;28;20398;-74
2023/01/03 06:15:25;;;;;;;11.60;4.25;;;;;;;10.03;85.29;102244.28;4997218;28;20431;-74
2023/01/03 06:18:01;;;;;;;10.98;4.63;;;;;;;10.65;86.71;102247.66;4998583;28;20054;-74
2023/01/03 06:20:28;;;;;;;12.05;4.35;;;;;;;10.91;86.46;102246.50;4997048;28;20058;-74
2023/01/03 06:22:56;;;;;;;10.75;4.82;;;;;;;10.78;82.08;102244.34;4981408;28;20050;-74
2023/01/03 06:25:24;;;;;;;9.30;4.35;;;;;;;10.30;83.28;102246.84;4998364;28;20069;-75
2023/01/03 06:27:51;;;;;;;10.00;4.90;;;;;;;10.52;84.17;102247.38;4997812;28;20054;-75
2023/01/03 06:30:19;;;;;;;15.50;4.97;;;;;;;10.46;83.04;102254.00;4981222;28;20042;-75
2023/01/03 06:32:47;;;;;;;18.13;9.77;;;;;;;10.67;85.02;102253.72;4988356;28;20487;-75
2023/01/03 06:35:14;;;;;;;12.18;5.40;;;;;;;10.79;85.15;102259.75;4961999;28;20055;-74
2023/01/03 06:37:42;;;;;;;16.25;7.15;;;;;;;10.22;82.43;102267.47;4998129;28;20054;-75
2023/01/03 06:40:09;;;;;;;23.23;11.80;;;;;;;10.24;82.09;102273.53;4999188;28;20163;-75
2023/01/03 06:42:43;;;;;;;10.57;5.20;;;;;;;10.06;82.95;102261.06;4998681;28;20092;-74
2023/01/03 06:53:38;;;;;;;9.25;4.00;;;;;;;9.57;84.71;102270.03;4981783;28;20073;-76
2023/01/03 06:56:06;;;;;;;10.93;4.53;;;;;;;9.66;84.77;102279.41;4965087;28;20038;-75
2023/01/03 06:58:34;;;;;;;12.50;4.65;;;;;;;9.45;85.25;102285.94;4997450;28;20069;-75
2023/01/03 07:01:04;;;;;;;12.90;5.40;;;;;;;9.44;86.44;102282.34;4981016;28;20053;-75
2023/01/03 07:03:32;;;;;;;;;;;;;;;9.52;88.55;102278.25;4999069;28;20054;-75
2023/01/03 07:05:59;;;;;;;11.27;4.78;;;;;;;9.58;87.36;102279.91;4980520;28;20332;-75
2023/01/03 07:08:26;;;;;;;15.25;5.25;;;;;;;10.15;89.41;102284.25;4977774;28;20419;-75
2023/01/03 07:10:54;;;;;;;21.67;11.18;;;;;;;9.80;86.39;102281.38;4993202;28;20538;-75
2023/01/03 07:16:13;;;;;;;13.13;5.40;;;;;;;10.19;89.03;102285.38;4984678;28;20047;-76
2023/01/03 07:18:41;;;;;;;13.30;5.47;;;;;;;9.70;86.44;102286.84;4986209;28;20051;-75
2023/01/03 07:21:09;;;;;;;16.98;5.68;;;;;;;10.13;87.63;102302.13;5008386;28;20114;-74
2023/01/03 07:23:37;;;;;;;12.05;6.13;;;;;;;10.36;87.01;102295.28;4986517;28;20054;-74
2023/01/03 07:26:05;;;;;;;14.20;5.43;;;;;;;10.98;87.71;102299.44;5001347;28;20509;-73
2023/01/03 07:28:32;;;;;;;22.75;10.20;;;;;;;10.68;82.21;102293.97;4987456;28;20050;-73
2023/01/03 07:31:02;;;;;;;16.85;8.10;;;;;;;11.20;86.51;102299.13;4979392;28;20046;-75
2023/01/03 07:33:29;;;;;;;19.58;10.23;;;;;;;11.29;85.58;102302.97;4971023;28;20047;-75
2023/01/03 07:36:06;;;;;;;12.50;5.38;;;;;;;10.91;81.21;102300.84;4985739;28;20501;-75
2023/01/03 07:38:40;;;;;;;13.93;5.88;;;;;;;10.56;83.70;102303.59;4972884;28;20062;-75
2023/01/03 07:41:07;;;;;;;15.27;6.43;;;;;;;10.40;84.29;102304.69;4975362;28;20047;-74
2023/01/03 07:43:36;;;;;;;18.75;10.38;;;;;;;10.47;85.94;102308.81;4973381;28;20050;-74
2023/01/03 07:46:06;;;;;;;38.43;22.90;;;;;;;10.51;87.51;102301.69;4977300;28;20046;-74
2023/01/03 07:48:34;;;;;;;19.67;11.55;;;;;;;11.37;86.89;102304.34;4972812;28;20066;-74
2023/01/03 07:51:02;;;;;;;17.23;6.07;;;;;;;11.09;83.49;102306.59;4961151;28;20055;-74
2023/01/03 07:53:30;;;;;;;12.27;5.13;;;;;;;11.46;87.13;102320.03;4981066;28;20065;-74
2023/01/03 07:56:02;;;;;;;14.60;5.07;;;;;;;11.92;84.56;102326.25;4985686;28;20042;-74
2023/01/03 07:58:40;;;;;;;13.85;4.90;;;;;;;11.78;84.56;102327.97;4980552;28;20059;-71
2023/01/03 08:01:08;;;;;;;15.73;5.28;;;;;;;11.62;80.98;102324.41;4980944;28;20061;-73
2023/01/03 08:03:37;;;;;;;10.32;4.25;;;;;;;11.43;78.40;102328.88;4976348;28;20460;-70
2023/01/03 08:06:07;;;;;;;12.05;4.50;;;;;;;11.49;77.90;102329.69;4980118;28;20043;-70
2023/01/03 08:08:34;;;;;;;11.05;4.25;;;;;;;11.56;77.41;102333.78;4997360;28;20042;-71
2023/01/03 08:13:49;;;;;;;12.25;4.97;;;;;;;11.22;78.68;102339.13;4983396;28;20046;-74
2023/01/03 08:16:17;;;;;;;15.63;4.70;;;;;;;10.67;79.73;102349.34;4995010;28;20058;-74
2023/01/03 08:18:45;;;;;;;9.68;4.68;;;;;;;10.38;80.27;102348.19;4975791;28;20047;-74
2023/01/03 08:21:13;;;;;;;10.85;4.90;;;;;;;10.95;81.13;102346.88;4978141;28;20053;-74
2023/01/03 08:23:41;;;;;;;10.95;4.38;;;;;;;10.95;81.35;102346.88;4974424;28;20422;-75
2023/01/03 08:26:13;;;;;;;14.48;5.03;;;;;;;10.91;80.76;102353.22;4983321;28;20069;-73
2023/01/03 08:28:42;;;;;;;11.65;5.40;;;;;;;11.08;82.99;102345.47;4941831;28;20057;-74
2023/01/03 08:31:30;;;;;;;15.75;5.75;;;;;;;11.10;78.75;102354.31;4997408;28;20055;-74
2023/01/03 08:34:00;;;;;;;13.68;6.82;;;;;;;11.73;79.56;102356.41;4943939;28;20410;-74
2023/01/03 08:36:32;;;;;;;15.10;7.47;;;;;;;10.86;79.08;102361.50;4953333;28;20123;-74
2023/01/03 08:39:06;;;;;;;14.93;6.65;;;;;;;10.92;80.31;102358.44;4975537;28;20115;-73
2023/01/03 08:41:37;;;;;;;15.77;6.53;;;;;;;10.84;80.55;102341.63;4986717;28;20622;-74
2023/01/03 08:44:06;;;;;;;11.65;6.25;;;;;;;11.44;80.61;102355.34;5007602;28;20058;-75
2023/01/03 08:46:33;;;;;;;20.85;8.75;;;;;;;11.05;79.76;102354.31;4942552;28;20058;-74
2023/01/03 08:49:01;;;;;;;15.85;8.85;;;;;;;11.29;80.90;102361.75;4978506;28;20046;-75
2023/01/03 08:51:28;;;;;;;18.73;8.65;;;;;;;11.46;79.91;102360.59;4992871;28;20549;-74
2023/01/03 08:53:56;;;;;;;16.63;6.32;;;;;;;10.96;78.48;102355.97;4983155;28;20061;-74
2023/01/03 08:56:23;;;;;;;20.30;8.25;;;;;;;11.07;79.58;102361.19;4982768;28;20046;-74
2023/01/03 08:58:50;;;;;;;14.90;6.75;;;;;;;10.63;80.20;102362.84;4991877;28;20050;-74
2023/01/03 09:01:19;;;;;;;14.40;5.97;;;;;;;10.63;84.06;102359.25;4999364;28;20067;-74
2023/01/03 09:03:47;;;;;;;16.63;7.18;;;;;;;10.08;82.56;102365.41;4979155;28;20054;-74
2023/01/03 09:06:14;;;;;;;12.30;5.90;;;;;;;10.65;84.41;102357.06;4970359;28;20426;-74
2023/01/03 09:08:42;;;;;;;18.95;6.60;;;;;;;10.70;82.45;102362.56;4981572;28;20073;-75
2023/01/03 09:11:10;;;;;;;16.38;7.00;;;;;;;10.86;80.93;102361.50;4995581;28;20051;-75
2023/01/03 09:13:37;;;;;;;13.48;6.15;;;;;;;10.58;82.05;102365.59;4969718;28;20051;-75
2023/01/03 09:16:07;;;;;;;15.20;6.38;;;;;;;10.63;83.21;102371.13;4976461;28;20054;-74
2023/01/03 09:18:36;;;;;;;17.65;6.82;;;;;;;10.74;81.42;102367.25;4976617;28;20057;-74
2023/01/03 09:21:04;;;;;;;13.70;6.93;;;;;;;11.12;82.62;102371.41;5000020;28;20042;-75
2023/01/03 09:23:33;;;;;;;11.13;5.82;;;;;;;11.16;79.68;102375.25;4993343;28;22763;-74
2023/01/03 09:26:00;;;;;;;12.90;6.40;;;;;;;11.60;80.79;102386.50;4982032;28;20081;-75
2023/01/03 09:28:28;;;;;;;16.00;6.10;;;;;;;11.79;79.57;102382.03;4994459;28;20072;-76
2023/01/03 09:30:56;;;;;;;15.85;6.20;;;;;;;12.04;78.77;102374.53;4978451;28;20050;-75
2023/01/03 09:33:27;;;;;;;19.52;9.25;;;;;;;11.70;77.04;102369.97;4980301;28;20058;-74
2023/01/03 09:35:55;;;;;;;18.23;9.15;;;;;;;11.62;79.28;102376.00;4953155;28;20050;-76
2023/01/03 09:38:22;;;;;;;16.20;8.98;;;;;;;11.94;79.20;102379.25;4965825;28;20038;-75
2023/01/03 09:41:02;;;;;;;19.27;10.38;;;;;;;11.36;75.91;102380.75;4985331;28;20058;-75
2023/01/03 09:43:35;;;;;;;18.02;7.72;;;;;;;11.38;79.46;102373.03;4973605;28;20406;-76
2023/01/03 09:46:04;;;;;;;12.82;7.13;;;;;;;11.20;79.10;102373.59;5003746;28;20039;-78
2023/01/03 09:48:34;;;;;;;15.07;7.20;;;;;;;11.33;78.06;102378.56;4980508;28;20074;-74
2023/01/03 09:51:02;;;;;;;17.42;7.10;;;;;;;11.01;79.58;102372.50;4957363;28;20051;-76
2023/01/03 10:05:32;;;;;;;13.57;5.68;;;;;;;11.82;79.36;102376.00;4982264;28;20042;-74
2023/01/03 10:08:27;;;;;;;10.85;4.20;;;;;;;12.27;78.41;102382.13;4977397;28;20058;-76
2023/01/03 10:11:09;;;;;;;6.88;3.47;;;;;;;12.43;75.65;102375.41;4943252;28;20057;-75
2023/01/03 10:13:55;;;;;;;11.15;4.32;;;;;;;12.33;76.47;102381.00;4981000;28;20057;-76
2023/01/03 10:16:40;;;;;;;15.07;5.35;;;;;;;11.14;77.26;102394.84;4954368;28;20135;-74
2023/01/03 10:19:18;;;;;;;9.90;4.55;;;;;;;12.08;79.25;102389.41;4974887;28;20050;-75
2023/01/03 10:22:09;;;;;;;16.48;5.43;;;;;;;11.99;78.48;102393.88;4996091;28;20046;-74
2023/01/03 10:24:45;;;;;;;17.60;6.07;;;;;;;11.93;77.94;102394.16;5001847;28;20065;-74
2023/01/03 10:27:24;;;;;;;16.35;7.03;;;;;;;11.82;79.35;102395.31;4986556;28;20038;-75
2023/01/03 10:29:54;;;;;;;21.23;8.45;;;;;;;11.41;77.12;102402.81;4995226;28;20413;-72
2023/01/03 10:32:52;;;;;;;13.23;6.43;;;;;;;11.74;80.78;102399.47;5001848;28;20050;-75
2023/01/03 10:35:28;;;;;;;19.40;8.48;;;;;;;11.85;80.14;102403.03;4999332;28;20058;-71
2023/01/03 10:37:56;;;;;;;14.15;7.28;;;;;;;12.29;80.19;102406.72;4976580;28;20058;-72
2023/01/03 10:40:48;;;;;;;25.80;9.05;;;;;;;12.34;79.17;102409.47;4959936;28;20059;-72
2023/01/03 10:43:27;;;;;;;13.30;5.55;;;;;;;12.35;77.74;102408.34;4994664;28;20042;-72
2023/01/03 10:46:00;;;;;;;14.27;8.00;;;;;;;12.66;77.39;102406.25;4966938;28;20065;-71
2023/01/03 10:48:40;;;;;;;9.88;4.07;;;;;;;12.22;76.79;102397.91;4977687;28;20058;-72
2023/01/03 10:51:32;;;;;;;10.80;4.20;;;;;;;12.22;76.32;102395.16;4944770;28;20069;-71
2023/01/03 10:54:30;;;;;;;13.27;4.65;;;;;;;12.21;76.96;102396.25;4951421;28;20046;-73
2023/01/03 10:56:58;;;;;;;13.15;5.18;;;;;;;12.22;76.46;102398.72;4985539;28;20065;-72
2023/01/03 10:59:26;;;;;;;14.30;4.80;;;;;;;12.63;77.91;102396.56;4993610;28;20050;-71
2023/01/03 11:02:11;;;;;;;8.80;4.15;;;;;;;12.87;75.68;102389.19;5005813;28;20494;-71
2023/01/03 11:04:39;;;;;;;17.08;9.30;;;;;;;13.13;75.16;102387.06;4978428;28;20054;-71
2023/01/03 11:07:06;;;;;;;39.70;19.00;;;;;;;13.08;74.50;102385.19;4976961;28;20038;-71
2023/01/03 11:09:53;;;;;;;22.30;11.48;;;;;;;13.03;74.38;102385.25;4989011;28;20059;-69
2023/01/03 11:12:32;;;;;;;20.90;7.30;;;;;;;13.09;73.14;102386.81;4979312;28;20042;-72
2023/01/03 11:15:19;;;;;;;13.10;5.20;;;;;;;13.08;72.77;102390.72;4979546;28;20050;-70
2023/01/03 11:17:55;;;;;;;12.80;4.75;;;;;;;13.02;74.29;102383.56;4965081;28;20438;-70
2023/01/03 11:20:34;;;;;;;12.30;4.85;;;;;;;13.25;72.41;102382.81;4988637;28;20047;-70
2023/01/03 11:23:09;;;;;;;11.63;4.97;;;;;;;13.12;73.42;102377.13;4960151;28;20065;-72
2023/01/03 11:25:52;;;;;;;18.20;8.75;;;;;;;13.28;72.58;102378.66;4966100;28;20070;-72
2023/01/03 11:29:00;;;;;;;17.90;9.00;;;;;;;13.40;72.27;102379.09;4978949;28;20042;-72
2023/01/03 11:31:39;;;;;;;11.95;4.85;;;;;;;12.59;71.67;102378.88;4989592;28;20059;-71
2023/01/03 11:34:39;;;;;;;13.77;3.88;;;;;;;12.60;73.64;102374.19;4971269;28;20054;-70
2023/01/03 11:37:44;;;;;;;14.77;6.45;;;;;;;12.91;73.73;102368.16;4953052;28;20056;-71
2023/01/03 11:40:24;;;;;;;13.40;6.05;;;;;;;13.21;72.70;102365.16;4999325;28;20051;-71
2023/01/03 11:42:52;;;;;;;11.27;3.90;;;;;;;13.11;72.67;102369.97;4957545;28;20047;-72
2023/01/03 11:45:29;;;;;;;13.05;3.42;;;;;;;13.38;71.59;102371.09;4971589;28;20051;-71
2023/01/03 11:48:26;;;;;;;13.57;5.88;;;;;;;13.32;72.45;102360.34;4987488;28;20039;-71
2023/01/03 11:51:16;;;;;;;15.18;5.55;;;;;;;13.30;71.84;102360.63;4972945;28;20051;-72
2023/01/03 11:54:04;;;;;;;13.27;4.20;;;;;;;13.16;72.10;102359.66;5000977;28;20073;-72
2023/01/03 11:56:43;;;;;;;11.38;4.13;;;;;;;13.37;71.83;102347.28;4962171;28;20063;-72
2023/01/03 11:59:49;;;;;;;13.00;4.15;;;;;;;13.43;70.83;102353.59;4985532;28;20051;-71
2023/01/03 12:02:35;;;;;;;16.58;4.18;;;;;;;13.40;70.24;102352.25;4971399;28;20115;-71
2023/01/03 12:05:09;;;;;;;10.63;3.55;;;;;;;13.08;71.25;102351.16;4959256;28;20057;-72
2023/01/03 12:07:46;;;;;;;11.25;3.85;;;;;;;13.28;70.90;102335.22;4958190;28;20106;-70
2023/01/03 12:10:33;;;;;;;20.10;8.48;;;;;;;13.57;71.25;102336.00;4963175;28;20456;-72
2023/01/03 12:13:09;;;;;;;29.20;12.77;;;;;;;13.71;69.93;102327.81;4959838;28;20053;-72
2023/01/03 12:15:55;;;;;;;19.25;9.98;;;;;;;13.54;69.86;102335.75;5005093;28;20063;-70
2023/01/03 12:18:40;;;;;;;17.83;8.60;;;;;;;13.56;69.84;102331.56;4979385;28;20104;-71
2023/01/03 12:21:20;;;;;;;21.40;11.18;;;;;;;13.65;70.22;102333.69;4959299;28;20051;-72
2023/01/03 12:24:01;;;;;;;16.33;7.30;;;;;;;13.15;72.21;102333.13;4953610;28;20050;-72
2023/01/03 12:26:29;;;;;;;18.42;5.80;;;;;;;13.31;71.77;102322.72;4987425;28;20051;-72
2023/01/03 12:29:20;;;;;;;11.82;4.53;;;;;;;13.57;72.34;102329.63;4963644;28;20047;-72
2023/01/03 12:31:50;;;;;;;;;;;;;;;13.28;70.62;102323.31;4958970;28;20554;-72
2023/01/03 12:34:36;;;;;;;14.77;5.63;;;;;;;13.40;71.45;102319.03;4993136;28;19929;-71
2023/01/03 12:37:19;;;;;;;16.48;5.30;;;;;;;13.66;70.94;102327.03;4956783;28;20047;-71
2023/01/03 12:39:54;;;;;;;15.07;5.55;;;;;;;13.60;70.13;102329.03;4993551;28;20406;-71